N2332E KFRG-KMLB
Flight info
| Callsign | N2332E |
|---|---|
| Flight time | N/A |
| Altitude | 44000 |
| Route | WAVEY EMJAY Q167 KALDA Q97 KENLL OMN BITHO7 |
| Aircraft | C25C/M-VGDW/C |
Departure
| Time | 2026-04-25 13:19 |
|---|---|
| Airport | Republic Airport (KFRG) |
Arrival
| Time | N/A |
|---|---|
| Airport | Melbourne Orlando International Airport (KMLB) |
| Time | Latitude | Longitude | Altitude | Speed | Heading |
|---|---|---|---|---|---|
| 2026-04-25 13:02 | 40.72163 | -73.41539 | 62 ft | 0 kts | 32° |
| 2026-04-25 13:12 | 40.72169 | -73.41537 | 58 ft | 4 kts | 9° |
| 2026-04-25 13:13 | 40.72273 | -73.41537 | 59 ft | 18 kts | 2° |
| 2026-04-25 13:13 | 40.72420 | -73.41539 | 71 ft | 22 kts | 357° |
| 2026-04-25 13:13 | 40.72565 | -73.41540 | 73 ft | 20 kts | 359° |
| 2026-04-25 13:13 | 40.72698 | -73.41543 | 74 ft | 18 kts | 0° |
| 2026-04-25 13:14 | 40.72812 | -73.41545 | 80 ft | 16 kts | 359° |
| 2026-04-25 13:14 | 40.72917 | -73.41596 | 77 ft | 18 kts | 313° |
| 2026-04-25 13:14 | 40.73003 | -73.41721 | 74 ft | 18 kts | 313° |
| 2026-04-25 13:14 | 40.73092 | -73.41850 | 77 ft | 20 kts | 311° |
| 2026-04-25 13:15 | 40.73183 | -73.41978 | 83 ft | 18 kts | 312° |
| 2026-04-25 13:15 | 40.73263 | -73.42096 | 84 ft | 10 kts | 310° |
| 2026-04-25 13:15 | 40.73309 | -73.42165 | 86 ft | 9 kts | 315° |
| 2026-04-25 13:15 | 40.73351 | -73.42223 | 90 ft | 8 kts | 312° |
| 2026-04-25 13:16 | 40.73394 | -73.42242 | 89 ft | 6 kts | 30° |
| 2026-04-25 13:16 | 40.73398 | -73.42239 | 89 ft | 0 kts | 33° |
| 2026-04-25 13:18 | 40.73408 | -73.42230 | 89 ft | 7 kts | 37° |
| 2026-04-25 13:18 | 40.73436 | -73.42137 | 89 ft | 11 kts | 136° |
| 2026-04-25 13:18 | 40.73268 | -73.41892 | 84 ft | 78 kts | 132° |
| 2026-04-25 13:19 | 40.72738 | -73.41129 | 421 ft | 133 kts | 131° |
| 2026-04-25 13:19 | 40.71949 | -73.40063 | 971 ft | 190 kts | 133° |
| 2026-04-25 13:19 | 40.70909 | -73.38751 | 1555 ft | 215 kts | 135° |
| 2026-04-25 13:19 | 40.70139 | -73.37919 | 1939 ft | 217 kts | 149° |
| 2026-04-25 13:20 | 40.68097 | -73.37707 | 2377 ft | 234 kts | 199° |
| 2026-04-25 13:20 | 40.66857 | -73.39114 | 2538 ft | 239 kts | 223° |
| 2026-04-25 13:20 | 40.65618 | -73.40555 | 2623 ft | 237 kts | 215° |
| 2026-04-25 13:20 | 40.64375 | -73.41994 | 2698 ft | 239 kts | 218° |
| 2026-04-25 13:21 | 40.63143 | -73.43457 | 2768 ft | 238 kts | 217° |
| 2026-04-25 13:21 | 40.61922 | -73.44891 | 2842 ft | 238 kts | 218° |
| 2026-04-25 13:21 | 40.60683 | -73.46331 | 2931 ft | 237 kts | 218° |
| 2026-04-25 13:21 | 40.59457 | -73.47759 | 3050 ft | 235 kts | 216° |
| 2026-04-25 13:22 | 40.58232 | -73.49204 | 3072 ft | 238 kts | 216° |
| 2026-04-25 13:22 | 40.56986 | -73.50660 | 3100 ft | 240 kts | 218° |
| 2026-04-25 13:22 | 40.55726 | -73.52112 | 3122 ft | 242 kts | 217° |
| 2026-04-25 13:23 | 40.53230 | -73.55059 | 3170 ft | 243 kts | 216° |
| 2026-04-25 13:23 | 40.51961 | -73.56536 | 3199 ft | 244 kts | 218° |
| 2026-04-25 13:23 | 40.50677 | -73.58000 | 3231 ft | 244 kts | 218° |
| 2026-04-25 13:23 | 40.49405 | -73.59491 | 3253 ft | 245 kts | 217° |
| 2026-04-25 13:24 | 40.48136 | -73.60979 | 3279 ft | 245 kts | 218° |
| 2026-04-25 13:24 | 40.46844 | -73.62432 | 3303 ft | 243 kts | 211° |
| 2026-04-25 13:24 | 40.45287 | -73.62988 | 3330 ft | 234 kts | 170° |
| 2026-04-25 13:24 | 40.43888 | -73.62101 | 3856 ft | 219 kts | 145° |
| 2026-04-25 13:25 | 40.42538 | -73.60900 | 4903 ft | 248 kts | 146° |
| 2026-04-25 13:25 | 40.41110 | -73.59480 | 6097 ft | 272 kts | 144° |
| 2026-04-25 13:25 | 40.39587 | -73.57905 | 7421 ft | 283 kts | 144° |
| 2026-04-25 13:25 | 40.38023 | -73.56281 | 8825 ft | 290 kts | 143° |
| 2026-04-25 13:26 | 40.36421 | -73.54619 | 10250 ft | 296 kts | 143° |
| 2026-04-25 13:26 | 40.34785 | -73.52941 | 11614 ft | 301 kts | 143° |
| 2026-04-25 13:26 | 40.33135 | -73.51238 | 13026 ft | 303 kts | 143° |
| 2026-04-25 13:26 | 40.31479 | -73.49516 | 14420 ft | 305 kts | 143° |
| 2026-04-25 13:27 | 40.29807 | -73.47760 | 15609 ft | 310 kts | 144° |
| 2026-04-25 13:27 | 40.28130 | -73.45956 | 16841 ft | 313 kts | 144° |
| 2026-04-25 13:27 | 40.26437 | -73.44112 | 17989 ft | 320 kts | 143° |
| 2026-04-25 13:27 | 40.24730 | -73.42220 | 19091 ft | 322 kts | 143° |
| 2026-04-25 13:28 | 40.23018 | -73.40317 | 20164 ft | 323 kts | 143° |
| 2026-04-25 13:28 | 40.21916 | -73.39001 | 20894 ft | 324 kts | 136° |
| 2026-04-25 13:28 | 40.19884 | -73.36106 | 22425 ft | 321 kts | 136° |
| 2026-04-25 13:28 | 40.18136 | -73.34173 | 22998 ft | 342 kts | 146° |
| 2026-04-25 13:29 | 40.16051 | -73.32357 | 23011 ft | 378 kts | 150° |
| 2026-04-25 13:29 | 40.13734 | -73.30433 | 23014 ft | 410 kts | 148° |
| 2026-04-25 13:29 | 40.11348 | -73.28202 | 23009 ft | 432 kts | 147° |
| 2026-04-25 13:30 | 40.05523 | -73.26692 | 23006 ft | 443 kts | 196° |
| 2026-04-25 13:30 | 40.02677 | -73.28123 | 23003 ft | 436 kts | 219° |
| 2026-04-25 13:30 | 40.00472 | -73.30731 | 22991 ft | 416 kts | 238° |
| 2026-04-25 13:31 | 39.97448 | -73.36610 | 23000 ft | 373 kts | 245° |
| 2026-04-25 13:31 | 39.96050 | -73.39409 | 22997 ft | 364 kts | 243° |
| 2026-04-25 13:31 | 39.94554 | -73.42053 | 22993 ft | 359 kts | 239° |
| 2026-04-25 13:31 | 39.92862 | -73.44442 | 22973 ft | 360 kts | 230° |
| 2026-04-25 13:32 | 39.90934 | -73.46462 | 22978 ft | 358 kts | 225° |
| 2026-04-25 13:32 | 39.88939 | -73.48387 | 22976 ft | 354 kts | 225° |
| 2026-04-25 13:32 | 39.87042 | -73.50376 | 22974 ft | 346 kts | 229° |
| 2026-04-25 13:32 | 39.85243 | -73.52430 | 22974 ft | 342 kts | 229° |
| 2026-04-25 13:33 | 39.83430 | -73.54422 | 22977 ft | 340 kts | 228° |
| 2026-04-25 13:33 | 39.81615 | -73.56373 | 22968 ft | 337 kts | 227° |
| 2026-04-25 13:33 | 39.79812 | -73.58308 | 22969 ft | 334 kts | 228° |
| 2026-04-25 13:33 | 39.78033 | -73.60246 | 23043 ft | 332 kts | 228° |
| 2026-04-25 13:34 | 39.76230 | -73.62209 | 23490 ft | 342 kts | 229° |
| 2026-04-25 13:34 | 39.74401 | -73.64196 | 23896 ft | 352 kts | 228° |
| 2026-04-25 13:34 | 39.72490 | -73.66256 | 24256 ft | 361 kts | 227° |
| 2026-04-25 13:34 | 39.70530 | -73.68368 | 24654 ft | 370 kts | 227° |
| 2026-04-25 13:35 | 39.68529 | -73.70527 | 25063 ft | 377 kts | 227° |
| 2026-04-25 13:35 | 39.66489 | -73.72732 | 25476 ft | 384 kts | 227° |
| 2026-04-25 13:35 | 39.64413 | -73.74966 | 25894 ft | 389 kts | 227° |
| 2026-04-25 13:35 | 39.62311 | -73.77228 | 26322 ft | 394 kts | 227° |
| 2026-04-25 13:36 | 39.60193 | -73.79505 | 26748 ft | 396 kts | 227° |
| 2026-04-25 13:36 | 39.58067 | -73.81792 | 27176 ft | 399 kts | 227° |
| 2026-04-25 13:36 | 39.55925 | -73.84091 | 27616 ft | 400 kts | 227° |
| 2026-04-25 13:36 | 39.53806 | -73.86368 | 28054 ft | 402 kts | 227° |
| 2026-04-25 13:37 | 39.51649 | -73.88678 | 28500 ft | 402 kts | 227° |
| 2026-04-25 13:37 | 39.49492 | -73.90991 | 28956 ft | 403 kts | 227° |
| 2026-04-25 13:37 | 39.47329 | -73.93305 | 29425 ft | 402 kts | 228° |
| 2026-04-25 13:37 | 39.45170 | -73.95615 | 29846 ft | 403 kts | 227° |
| 2026-04-25 13:38 | 39.42992 | -73.97950 | 29946 ft | 411 kts | 228° |
| 2026-04-25 13:38 | 39.38504 | -74.02743 | 30157 ft | 422 kts | 227° |
| 2026-04-25 13:38 | 39.36229 | -74.05156 | 30533 ft | 422 kts | 227° |
| 2026-04-25 13:39 | 39.33963 | -74.07573 | 30948 ft | 422 kts | 227° |
| 2026-04-25 13:39 | 39.31695 | -74.09985 | 31359 ft | 423 kts | 227° |
| 2026-04-25 13:39 | 39.29427 | -74.12403 | 31783 ft | 422 kts | 227° |
| 2026-04-25 13:39 | 39.27155 | -74.14809 | 32203 ft | 422 kts | 227° |
| 2026-04-25 13:40 | 39.24890 | -74.17218 | 32628 ft | 421 kts | 227° |
| 2026-04-25 13:40 | 39.22626 | -74.19613 | 33067 ft | 419 kts | 227° |
| 2026-04-25 13:40 | 39.20410 | -74.21969 | 33497 ft | 418 kts | 227° |
| 2026-04-25 13:40 | 39.18159 | -74.24344 | 33949 ft | 416 kts | 227° |
| 2026-04-25 13:41 | 39.15923 | -74.26715 | 34343 ft | 414 kts | 227° |
| 2026-04-25 13:41 | 39.13703 | -74.29058 | 34732 ft | 411 kts | 227° |
| 2026-04-25 13:41 | 39.11497 | -74.31392 | 35136 ft | 409 kts | 227° |
| 2026-04-25 13:41 | 39.09330 | -74.33673 | 35539 ft | 405 kts | 228° |
| 2026-04-25 13:42 | 39.07155 | -74.35969 | 35934 ft | 403 kts | 227° |
| 2026-04-25 13:42 | 39.04993 | -74.38247 | 36355 ft | 399 kts | 228° |
| 2026-04-25 13:42 | 39.02847 | -74.40504 | 36755 ft | 397 kts | 228° |
| 2026-04-25 13:42 | 39.00718 | -74.42746 | 37165 ft | 394 kts | 228° |
| 2026-04-25 13:43 | 38.98596 | -74.44973 | 37582 ft | 392 kts | 228° |
| 2026-04-25 13:43 | 38.96487 | -74.47191 | 37989 ft | 389 kts | 228° |
| 2026-04-25 13:43 | 38.94422 | -74.49356 | 38421 ft | 387 kts | 228° |
| 2026-04-25 13:43 | 38.92341 | -74.51538 | 38826 ft | 384 kts | 228° |
| 2026-04-25 13:44 | 38.90276 | -74.53702 | 39151 ft | 383 kts | 228° |
| 2026-04-25 13:44 | 38.88213 | -74.55861 | 39453 ft | 382 kts | 227° |
| 2026-04-25 13:44 | 38.86155 | -74.58017 | 39757 ft | 382 kts | 227° |
| 2026-04-25 13:44 | 38.84097 | -74.60165 | 40069 ft | 381 kts | 227° |
| 2026-04-25 13:45 | 38.82043 | -74.62311 | 40378 ft | 380 kts | 227° |
| 2026-04-25 13:45 | 38.79987 | -74.64458 | 40698 ft | 380 kts | 227° |
| 2026-04-25 13:45 | 38.77931 | -74.66600 | 41005 ft | 379 kts | 226° |
| 2026-04-25 13:45 | 38.75917 | -74.68701 | 41322 ft | 378 kts | 226° |
| 2026-04-25 13:46 | 38.73877 | -74.70822 | 41622 ft | 377 kts | 226° |
| 2026-04-25 13:46 | 38.71839 | -74.72946 | 41880 ft | 378 kts | 226° |
| 2026-04-25 13:46 | 38.69797 | -74.75070 | 42142 ft | 379 kts | 226° |
| 2026-04-25 13:46 | 38.67745 | -74.77198 | 42408 ft | 379 kts | 225° |
| 2026-04-25 13:47 | 38.65694 | -74.79330 | 42674 ft | 380 kts | 225° |
| 2026-04-25 13:47 | 38.63633 | -74.81467 | 42833 ft | 383 kts | 225° |
| 2026-04-25 13:47 | 38.61550 | -74.83629 | 42874 ft | 389 kts | 225° |
| 2026-04-25 13:48 | 38.57281 | -74.88047 | 42891 ft | 401 kts | 225° |
| 2026-04-25 13:48 | 38.52884 | -74.92593 | 42898 ft | 411 kts | 224° |
| 2026-04-25 13:49 | 38.48381 | -74.97241 | 42896 ft | 420 kts | 224° |
| 2026-04-25 13:49 | 38.43813 | -75.01946 | 42904 ft | 428 kts | 224° |
| 2026-04-25 13:50 | 38.39139 | -75.06751 | 42895 ft | 434 kts | 224° |
| 2026-04-25 13:50 | 38.34401 | -75.11616 | 42906 ft | 439 kts | 224° |
| 2026-04-25 13:51 | 38.29612 | -75.16521 | 42903 ft | 442 kts | 224° |
| 2026-04-25 13:51 | 38.24871 | -75.21368 | 42903 ft | 435 kts | 224° |
| 2026-04-25 13:52 | 38.20163 | -75.26184 | 42899 ft | 434 kts | 224° |
| 2026-04-25 13:52 | 38.15453 | -75.30984 | 42875 ft | 433 kts | 223° |
| 2026-04-25 13:53 | 38.10771 | -75.35750 | 42863 ft | 432 kts | 223° |
| 2026-04-25 13:53 | 38.06074 | -75.40520 | 42861 ft | 431 kts | 223° |
| 2026-04-25 13:54 | 38.01412 | -75.45248 | 42855 ft | 426 kts | 223° |
| 2026-04-25 13:54 | 37.97571 | -75.49139 | 42853 ft | 423 kts | 223° |
| 2026-04-25 13:55 | 37.92233 | -75.54541 | 42869 ft | 420 kts | 223° |
| 2026-04-25 13:55 | 37.88412 | -75.58398 | 42864 ft | 418 kts | 223° |
| 2026-04-25 13:56 | 37.83863 | -75.62891 | 42864 ft | 419 kts | 218° |
| 2026-04-25 13:56 | 37.78819 | -75.66655 | 42838 ft | 420 kts | 215° |
| 2026-04-25 13:57 | 37.73786 | -75.70402 | 42840 ft | 418 kts | 216° |
| 2026-04-25 13:57 | 37.68803 | -75.74111 | 42840 ft | 417 kts | 215° |
| 2026-04-25 13:58 | 37.63800 | -75.77823 | 42845 ft | 416 kts | 215° |
| 2026-04-25 13:58 | 37.58795 | -75.81534 | 42842 ft | 416 kts | 215° |
| 2026-04-25 13:59 | 37.53806 | -75.85223 | 42837 ft | 415 kts | 215° |
| 2026-04-25 13:59 | 37.48853 | -75.88881 | 42832 ft | 415 kts | 215° |
| 2026-04-25 14:00 | 37.43877 | -75.92552 | 42827 ft | 414 kts | 215° |
| 2026-04-25 14:00 | 37.38906 | -75.96206 | 42814 ft | 413 kts | 216° |
| 2026-04-25 14:01 | 37.33947 | -75.99865 | 42807 ft | 413 kts | 215° |
| 2026-04-25 14:01 | 37.28978 | -76.03506 | 42805 ft | 413 kts | 215° |
| 2026-04-25 14:02 | 37.24010 | -76.07154 | 42800 ft | 413 kts | 215° |
| 2026-04-25 14:02 | 37.19035 | -76.10796 | 42791 ft | 413 kts | 215° |
| 2026-04-25 14:03 | 37.14092 | -76.14388 | 42793 ft | 413 kts | 215° |
| 2026-04-25 14:03 | 37.08804 | -76.18267 | 42805 ft | 412 kts | 215° |
| 2026-04-25 14:04 | 37.04165 | -76.21639 | 42817 ft | 413 kts | 215° |
| 2026-04-25 14:04 | 36.99195 | -76.25261 | 42824 ft | 413 kts | 215° |
| 2026-04-25 14:05 | 36.94232 | -76.28857 | 42848 ft | 412 kts | 215° |
| 2026-04-25 14:05 | 36.89275 | -76.32457 | 42841 ft | 412 kts | 215° |
| 2026-04-25 14:06 | 36.84342 | -76.36025 | 42821 ft | 412 kts | 215° |
| 2026-04-25 14:06 | 36.79372 | -76.39622 | 42823 ft | 413 kts | 215° |
| 2026-04-25 14:07 | 36.74394 | -76.43214 | 42817 ft | 413 kts | 215° |
| 2026-04-25 14:07 | 36.69420 | -76.46799 | 42806 ft | 413 kts | 214° |
| 2026-04-25 14:08 | 36.64444 | -76.50380 | 42817 ft | 413 kts | 214° |
| 2026-04-25 14:08 | 36.59467 | -76.53958 | 42819 ft | 413 kts | 215° |
| 2026-04-25 14:09 | 36.54479 | -76.57538 | 42780 ft | 413 kts | 214° |
| 2026-04-25 14:09 | 36.49496 | -76.61107 | 42782 ft | 413 kts | 214° |
| 2026-04-25 14:10 | 36.44512 | -76.64672 | 42774 ft | 413 kts | 214° |
| 2026-04-25 14:10 | 36.39560 | -76.68210 | 42774 ft | 413 kts | 214° |
| 2026-04-25 14:11 | 36.34572 | -76.71777 | 42773 ft | 413 kts | 214° |
| 2026-04-25 14:11 | 36.29588 | -76.75322 | 42789 ft | 413 kts | 214° |
| 2026-04-25 14:12 | 36.24600 | -76.78864 | 42787 ft | 413 kts | 214° |
| 2026-04-25 14:12 | 36.19607 | -76.82411 | 42791 ft | 413 kts | 214° |
| 2026-04-25 14:13 | 36.14619 | -76.85950 | 42792 ft | 413 kts | 214° |
| 2026-04-25 14:13 | 36.09625 | -76.89484 | 42784 ft | 413 kts | 214° |
| 2026-04-25 14:14 | 36.04631 | -76.93013 | 42784 ft | 413 kts | 214° |
| 2026-04-25 14:14 | 35.99661 | -76.96522 | 42786 ft | 413 kts | 214° |
| 2026-04-25 14:15 | 35.94667 | -77.00044 | 42793 ft | 413 kts | 214° |
| 2026-04-25 14:15 | 35.89660 | -77.03569 | 42795 ft | 414 kts | 214° |
| 2026-04-25 14:16 | 35.84650 | -77.07089 | 42799 ft | 414 kts | 214° |
| 2026-04-25 14:16 | 35.79644 | -77.10602 | 42794 ft | 414 kts | 213° |
| 2026-04-25 14:17 | 35.74633 | -77.14114 | 42812 ft | 414 kts | 213° |
| 2026-04-25 14:17 | 35.69621 | -77.17620 | 42804 ft | 415 kts | 213° |
| 2026-04-25 14:18 | 35.64626 | -77.21109 | 42786 ft | 415 kts | 213° |
| 2026-04-25 14:18 | 35.59603 | -77.24614 | 42796 ft | 415 kts | 213° |
| 2026-04-25 14:19 | 35.54574 | -77.28120 | 42795 ft | 415 kts | 213° |
| 2026-04-25 14:19 | 35.49548 | -77.31616 | 42795 ft | 415 kts | 213° |
| 2026-04-25 14:20 | 35.44552 | -77.35084 | 42808 ft | 415 kts | 213° |
| 2026-04-25 14:20 | 35.39520 | -77.38575 | 42832 ft | 415 kts | 213° |
| 2026-04-25 14:21 | 35.34483 | -77.42066 | 42834 ft | 416 kts | 213° |
| 2026-04-25 14:21 | 35.29438 | -77.45553 | 42839 ft | 416 kts | 213° |
| 2026-04-25 14:22 | 35.24400 | -77.49033 | 42836 ft | 416 kts | 213° |
| 2026-04-25 14:22 | 35.19366 | -77.52504 | 42836 ft | 416 kts | 213° |
| 2026-04-25 14:23 | 35.14295 | -77.55998 | 42829 ft | 416 kts | 213° |
| 2026-04-25 14:23 | 35.09261 | -77.59459 | 42823 ft | 416 kts | 213° |
| 2026-04-25 14:24 | 35.04193 | -77.62939 | 42827 ft | 417 kts | 213° |
| 2026-04-25 14:24 | 34.99136 | -77.66408 | 42830 ft | 417 kts | 213° |
| 2026-04-25 14:25 | 34.94094 | -77.69860 | 42831 ft | 417 kts | 213° |
| 2026-04-25 14:25 | 34.89042 | -77.73313 | 42835 ft | 417 kts | 213° |
| 2026-04-25 14:26 | 34.83964 | -77.76780 | 42833 ft | 417 kts | 213° |
| 2026-04-25 14:26 | 34.78895 | -77.80238 | 42831 ft | 418 kts | 212° |
| 2026-04-25 14:27 | 34.73838 | -77.83679 | 42830 ft | 418 kts | 213° |
| 2026-04-25 14:27 | 34.68772 | -77.87125 | 42830 ft | 418 kts | 213° |
| 2026-04-25 14:28 | 34.63675 | -77.90586 | 42828 ft | 418 kts | 212° |
| 2026-04-25 14:28 | 34.58572 | -77.94046 | 42834 ft | 418 kts | 212° |
| 2026-04-25 14:29 | 34.53497 | -77.97480 | 42827 ft | 419 kts | 212° |